DLH242 LICC-EDDS
Flight info
| Callsign | DLH242 |
|---|---|
| Flight time | N/A |
| Altitude | 34000 |
| Route | BUDIN DCT OKDEB DCT ATPED DCT RESIA DCT ARGAX Y170 ROMIR T125 REUTL REUTL1W |
| Aircraft | A320/M-SDE3FGHIRWY/LB1 |
Departure
| Time | 2026-05-04 12:41 |
|---|---|
| Airport | Catania-Fontanarossa Airport (LICC) |
Arrival
| Time | N/A |
|---|---|
| Airport | Stuttgart Airport (EDDS) |
| Time | Latitude | Longitude | Altitude | Speed | Heading |
|---|---|---|---|---|---|
| 2026-05-04 12:28 | 37.46984 | 15.06415 | 28 ft | 0 kts | 31° |
| 2026-05-04 12:35 | 37.46969 | 15.06403 | 28 ft | 3 kts | 31° |
| 2026-05-04 12:35 | 37.46953 | 15.06392 | 28 ft | 3 kts | 31° |
| 2026-05-04 12:35 | 37.46938 | 15.06380 | 27 ft | 3 kts | 31° |
| 2026-05-04 12:36 | 37.46923 | 15.06369 | 27 ft | 3 kts | 31° |
| 2026-05-04 12:36 | 37.46909 | 15.06357 | 28 ft | 2 kts | 31° |
| 2026-05-04 12:36 | 37.46893 | 15.06348 | 28 ft | 3 kts | 341° |
| 2026-05-04 12:36 | 37.46880 | 15.06361 | 27 ft | 3 kts | 269° |
| 2026-05-04 12:37 | 37.46879 | 15.06363 | 27 ft | 2 kts | 255° |
| 2026-05-04 12:37 | 37.46843 | 15.06293 | 30 ft | 11 kts | 234° |
| 2026-05-04 12:37 | 37.46800 | 15.06146 | 33 ft | 33 kts | 260° |
| 2026-05-04 12:37 | 37.46778 | 15.05850 | 35 ft | 34 kts | 264° |
| 2026-05-04 12:38 | 37.46756 | 15.05597 | 38 ft | 14 kts | 262° |
| 2026-05-04 12:38 | 37.46729 | 15.05492 | 37 ft | 11 kts | 226° |
| 2026-05-04 12:38 | 37.46686 | 15.05466 | 39 ft | 0 kts | 188° |
| 2026-05-04 12:39 | 37.46667 | 15.05465 | 38 ft | 10 kts | 179° |
| 2026-05-04 12:40 | 37.46598 | 15.05552 | 35 ft | 17 kts | 94° |
| 2026-05-04 12:40 | 37.46594 | 15.05647 | 33 ft | 0 kts | 85° |
| 2026-05-04 12:40 | 37.46596 | 15.05682 | 33 ft | 22 kts | 85° |
| 2026-05-04 12:41 | 37.46634 | 15.06206 | 32 ft | 94 kts | 84° |
| 2026-05-04 12:41 | 37.46718 | 15.07260 | 27 ft | 148 kts | 85° |
| 2026-05-04 12:41 | 37.46794 | 15.08655 | 444 ft | 157 kts | 89° |
| 2026-05-04 12:41 | 37.46866 | 15.10010 | 1186 ft | 154 kts | 89° |
| 2026-05-04 12:42 | 37.46937 | 15.11361 | 1733 ft | 156 kts | 87° |
| 2026-05-04 12:42 | 37.47008 | 15.12771 | 1962 ft | 172 kts | 85° |
| 2026-05-04 12:42 | 37.47227 | 15.14363 | 2146 ft | 196 kts | 78° |
| 2026-05-04 12:42 | 37.47560 | 15.16127 | 2371 ft | 218 kts | 77° |
| 2026-05-04 12:43 | 37.47922 | 15.18065 | 2682 ft | 238 kts | 77° |
| 2026-05-04 12:43 | 37.48289 | 15.20149 | 3096 ft | 249 kts | 79° |
| 2026-05-04 12:43 | 37.48642 | 15.22291 | 3735 ft | 252 kts | 79° |
| 2026-05-04 12:43 | 37.48981 | 15.24463 | 4444 ft | 253 kts | 79° |
| 2026-05-04 12:44 | 37.49384 | 15.26651 | 5043 ft | 262 kts | 69° |
| 2026-05-04 12:44 | 37.50242 | 15.28685 | 5725 ft | 266 kts | 52° |
| 2026-05-04 12:44 | 37.51549 | 15.30380 | 6316 ft | 275 kts | 34° |
| 2026-05-04 12:44 | 37.53172 | 15.31688 | 7007 ft | 278 kts | 30° |
| 2026-05-04 12:45 | 37.54823 | 15.32973 | 7727 ft | 280 kts | 29° |
| 2026-05-04 12:45 | 37.56487 | 15.34270 | 8471 ft | 283 kts | 31° |
| 2026-05-04 12:45 | 37.58169 | 15.35582 | 9214 ft | 285 kts | 29° |
| 2026-05-04 12:45 | 37.59863 | 15.36904 | 9952 ft | 288 kts | 30° |
| 2026-05-04 12:46 | 37.61584 | 15.38249 | 10441 ft | 300 kts | 30° |
| 2026-05-04 12:46 | 37.63421 | 15.39687 | 10595 ft | 322 kts | 30° |
| 2026-05-04 12:46 | 37.65367 | 15.41211 | 10723 ft | 344 kts | 30° |
| 2026-05-04 12:46 | 37.67474 | 15.42860 | 11079 ft | 357 kts | 29° |
| 2026-05-04 12:47 | 37.69718 | 15.44136 | 11636 ft | 361 kts | 15° |
| 2026-05-04 12:47 | 37.72181 | 15.44723 | 12272 ft | 362 kts | 1° |
| 2026-05-04 12:47 | 37.74697 | 15.44546 | 12909 ft | 363 kts | 348° |
| 2026-05-04 12:47 | 37.77116 | 15.43627 | 13551 ft | 365 kts | 336° |
| 2026-05-04 12:48 | 37.79481 | 15.42426 | 14174 ft | 367 kts | 337° |
| 2026-05-04 12:48 | 37.81862 | 15.41228 | 14762 ft | 369 kts | 337° |
| 2026-05-04 12:48 | 37.84260 | 15.40028 | 15346 ft | 372 kts | 337° |
| 2026-05-04 12:48 | 37.86677 | 15.38822 | 15934 ft | 374 kts | 337° |
| 2026-05-04 12:49 | 37.89107 | 15.37613 | 16508 ft | 377 kts | 337° |
| 2026-05-04 12:49 | 37.91554 | 15.36392 | 17090 ft | 379 kts | 337° |
| 2026-05-04 12:49 | 37.94013 | 15.35161 | 17672 ft | 381 kts | 337° |
| 2026-05-04 12:49 | 37.96488 | 15.33917 | 18269 ft | 384 kts | 336° |
| 2026-05-04 12:50 | 37.98979 | 15.32663 | 18783 ft | 386 kts | 336° |
| 2026-05-04 12:50 | 38.01483 | 15.31404 | 19291 ft | 388 kts | 336° |
| 2026-05-04 12:50 | 38.03999 | 15.30139 | 19797 ft | 390 kts | 336° |
| 2026-05-04 12:50 | 38.06527 | 15.28865 | 20334 ft | 392 kts | 336° |
| 2026-05-04 12:51 | 38.09067 | 15.27583 | 20807 ft | 394 kts | 336° |
| 2026-05-04 12:51 | 38.11628 | 15.26290 | 21286 ft | 396 kts | 336° |
| 2026-05-04 12:51 | 38.14192 | 15.25001 | 21774 ft | 398 kts | 336° |
| 2026-05-04 12:51 | 38.16776 | 15.23698 | 22236 ft | 400 kts | 335° |
| 2026-05-04 12:52 | 38.19361 | 15.22389 | 22687 ft | 401 kts | 335° |
| 2026-05-04 12:52 | 38.21962 | 15.21069 | 23126 ft | 403 kts | 335° |
| 2026-05-04 12:52 | 38.24570 | 15.19744 | 23553 ft | 405 kts | 335° |
| 2026-05-04 12:52 | 38.27190 | 15.18411 | 23933 ft | 406 kts | 335° |
| 2026-05-04 12:53 | 38.29815 | 15.17077 | 24295 ft | 407 kts | 335° |
| 2026-05-04 12:53 | 38.32450 | 15.15744 | 24660 ft | 408 kts | 335° |
| 2026-05-04 12:53 | 38.35101 | 15.14404 | 25006 ft | 409 kts | 335° |
| 2026-05-04 12:53 | 38.37716 | 15.13080 | 25354 ft | 410 kts | 335° |
| 2026-05-04 12:54 | 38.40372 | 15.11728 | 25681 ft | 412 kts | 335° |
| 2026-05-04 12:54 | 38.43038 | 15.10365 | 26011 ft | 413 kts | 335° |
| 2026-05-04 12:54 | 38.45706 | 15.08998 | 26331 ft | 414 kts | 335° |
| 2026-05-04 12:54 | 38.48377 | 15.07626 | 26649 ft | 415 kts | 335° |
| 2026-05-04 12:55 | 38.51048 | 15.06209 | 26965 ft | 415 kts | 334° |
| 2026-05-04 12:55 | 38.53704 | 15.04756 | 27264 ft | 416 kts | 334° |
| 2026-05-04 12:55 | 38.56358 | 15.03283 | 27557 ft | 417 kts | 334° |
| 2026-05-04 12:55 | 38.59020 | 15.01801 | 27846 ft | 418 kts | 334° |
| 2026-05-04 12:56 | 38.61688 | 15.00320 | 28129 ft | 419 kts | 334° |
| 2026-05-04 12:56 | 38.64372 | 14.98831 | 28349 ft | 420 kts | 334° |
| 2026-05-04 12:56 | 38.67056 | 14.97346 | 28592 ft | 421 kts | 334° |
| 2026-05-04 12:56 | 38.69748 | 14.95862 | 28813 ft | 422 kts | 334° |
| 2026-05-04 12:57 | 38.72449 | 14.94376 | 29106 ft | 421 kts | 334° |
| 2026-05-04 12:57 | 38.75133 | 14.92898 | 29447 ft | 420 kts | 334° |
| 2026-05-04 12:57 | 38.77806 | 14.91426 | 29773 ft | 416 kts | 334° |
| 2026-05-04 12:57 | 38.80454 | 14.89965 | 30106 ft | 415 kts | 334° |
| 2026-05-04 12:58 | 38.83098 | 14.88505 | 30413 ft | 413 kts | 333° |
| 2026-05-04 12:58 | 38.85731 | 14.87050 | 30699 ft | 411 kts | 333° |
| 2026-05-04 12:58 | 38.88352 | 14.85596 | 30969 ft | 409 kts | 333° |
| 2026-05-04 12:58 | 38.90964 | 14.84143 | 31264 ft | 408 kts | 333° |
| 2026-05-04 12:59 | 38.93571 | 14.82698 | 31555 ft | 407 kts | 333° |
| 2026-05-04 12:59 | 38.96157 | 14.81262 | 31863 ft | 404 kts | 333° |
| 2026-05-04 12:59 | 38.98736 | 14.79825 | 32153 ft | 402 kts | 333° |
| 2026-05-04 12:59 | 39.01294 | 14.78403 | 32435 ft | 400 kts | 333° |
| 2026-05-04 13:00 | 39.03809 | 14.77008 | 32688 ft | 398 kts | 333° |
| 2026-05-04 13:00 | 39.06351 | 14.75596 | 32952 ft | 397 kts | 333° |
| 2026-05-04 13:00 | 39.08911 | 14.74168 | 33246 ft | 395 kts | 332° |
| 2026-05-04 13:00 | 39.11435 | 14.72762 | 33456 ft | 395 kts | 332° |
| 2026-05-04 13:01 | 39.13949 | 14.71352 | 33689 ft | 394 kts | 332° |
| 2026-05-04 13:01 | 39.16456 | 14.69946 | 33937 ft | 392 kts | 332° |
| 2026-05-04 13:01 | 39.18960 | 14.68545 | 34123 ft | 392 kts | 332° |
| 2026-05-04 13:02 | 39.23921 | 14.65766 | 34162 ft | 390 kts | 332° |
| 2026-05-04 13:02 | 39.28906 | 14.62972 | 34164 ft | 390 kts | 332° |
| 2026-05-04 13:03 | 39.33878 | 14.60177 | 34163 ft | 390 kts | 332° |
| 2026-05-04 13:03 | 39.38871 | 14.57366 | 34162 ft | 392 kts | 332° |
| 2026-05-04 13:04 | 39.43866 | 14.54548 | 34159 ft | 392 kts | 332° |
| 2026-05-04 13:04 | 39.48018 | 14.52210 | 34154 ft | 392 kts | 332° |
| 2026-05-04 13:05 | 39.53014 | 14.49389 | 34157 ft | 392 kts | 332° |
| 2026-05-04 13:05 | 39.58010 | 14.46556 | 34175 ft | 392 kts | 331° |
| 2026-05-04 13:06 | 39.63017 | 14.43716 | 34153 ft | 393 kts | 331° |
| 2026-05-04 13:06 | 39.68037 | 14.40873 | 34155 ft | 394 kts | 331° |
| 2026-05-04 13:07 | 39.73062 | 14.38020 | 34160 ft | 394 kts | 331° |
| 2026-05-04 13:07 | 39.78089 | 14.35155 | 34159 ft | 395 kts | 331° |
| 2026-05-04 13:08 | 39.83118 | 14.32283 | 34159 ft | 395 kts | 331° |
| 2026-05-04 13:08 | 39.88148 | 14.29406 | 34159 ft | 395 kts | 331° |
| 2026-05-04 13:09 | 39.93182 | 14.26522 | 34156 ft | 395 kts | 331° |
| 2026-05-04 13:09 | 39.98215 | 14.23635 | 34157 ft | 395 kts | 331° |
| 2026-05-04 13:10 | 40.03251 | 14.20752 | 34159 ft | 395 kts | 331° |
| 2026-05-04 13:10 | 40.08297 | 14.17854 | 34151 ft | 396 kts | 331° |
| 2026-05-04 13:11 | 40.13309 | 14.14964 | 34153 ft | 397 kts | 331° |
| 2026-05-04 13:11 | 40.18366 | 14.12047 | 34158 ft | 398 kts | 331° |
| 2026-05-04 13:12 | 40.23427 | 14.09119 | 34157 ft | 398 kts | 331° |
| 2026-05-04 13:12 | 40.28490 | 14.06183 | 34178 ft | 398 kts | 331° |
| 2026-05-04 13:13 | 40.33572 | 14.03224 | 34173 ft | 400 kts | 331° |
| 2026-05-04 13:13 | 40.38667 | 14.00274 | 34170 ft | 400 kts | 331° |
| 2026-05-04 13:14 | 40.43763 | 13.97320 | 34172 ft | 401 kts | 331° |
| 2026-05-04 13:14 | 40.48854 | 13.94360 | 34173 ft | 400 kts | 331° |
| 2026-05-04 13:15 | 40.53945 | 13.91378 | 34166 ft | 401 kts | 331° |
| 2026-05-04 13:15 | 40.59041 | 13.88389 | 34162 ft | 402 kts | 331° |
| 2026-05-04 13:16 | 40.64151 | 13.85401 | 34154 ft | 402 kts | 331° |
| 2026-05-04 13:16 | 40.69269 | 13.82405 | 34154 ft | 403 kts | 330° |
| 2026-05-04 13:17 | 40.74390 | 13.79391 | 34163 ft | 403 kts | 330° |
| 2026-05-04 13:17 | 40.79516 | 13.76371 | 34154 ft | 404 kts | 330° |
| 2026-05-04 13:18 | 40.84652 | 13.73339 | 34155 ft | 404 kts | 330° |
| 2026-05-04 13:18 | 40.89792 | 13.70303 | 34153 ft | 405 kts | 331° |
| 2026-05-04 13:19 | 40.94936 | 13.67268 | 34156 ft | 405 kts | 330° |
| 2026-05-04 13:19 | 41.00089 | 13.64213 | 34158 ft | 407 kts | 331° |
| 2026-05-04 13:20 | 41.05225 | 13.61154 | 34142 ft | 408 kts | 331° |
| 2026-05-04 13:20 | 41.10412 | 13.58071 | 34142 ft | 409 kts | 331° |
| 2026-05-04 13:21 | 41.15606 | 13.54981 | 34145 ft | 410 kts | 331° |
| 2026-05-04 13:21 | 41.20806 | 13.51879 | 34149 ft | 410 kts | 331° |
| 2026-05-04 13:22 | 41.26025 | 13.48758 | 34131 ft | 411 kts | 331° |
| 2026-05-04 13:22 | 41.31258 | 13.45625 | 34137 ft | 412 kts | 331° |
| 2026-05-04 13:23 | 41.36490 | 13.42482 | 34140 ft | 413 kts | 331° |
| 2026-05-04 13:23 | 41.41729 | 13.39333 | 34146 ft | 413 kts | 331° |
| 2026-05-04 13:24 | 41.46978 | 13.36178 | 34132 ft | 415 kts | 331° |
| 2026-05-04 13:24 | 41.52240 | 13.33013 | 34147 ft | 415 kts | 331° |
| 2026-05-04 13:25 | 41.60132 | 13.28228 | 34152 ft | 415 kts | 331° |
| 2026-05-04 13:25 | 41.65402 | 13.25034 | 34160 ft | 417 kts | 331° |
| 2026-05-04 13:26 | 41.70683 | 13.21827 | 34157 ft | 417 kts | 331° |
| 2026-05-04 13:26 | 41.75941 | 13.18635 | 34149 ft | 417 kts | 331° |
| 2026-05-04 13:27 | 41.81229 | 13.15415 | 34147 ft | 418 kts | 331° |
| 2026-05-04 13:27 | 41.86528 | 13.12180 | 34151 ft | 418 kts | 331° |
| 2026-05-04 13:28 | 41.91840 | 13.08933 | 34148 ft | 420 kts | 331° |
| 2026-05-04 13:28 | 41.97206 | 13.05779 | 34153 ft | 421 kts | 332° |
| 2026-05-04 13:29 | 42.02598 | 13.02686 | 34155 ft | 421 kts | 332° |
| 2026-05-04 13:29 | 42.07949 | 12.99588 | 34154 ft | 421 kts | 332° |
| 2026-05-04 13:30 | 42.13326 | 12.96438 | 34159 ft | 421 kts | 332° |
| 2026-05-04 13:30 | 42.18704 | 12.93275 | 34157 ft | 422 kts | 332° |
| 2026-05-04 13:31 | 42.24090 | 12.90118 | 34171 ft | 422 kts | 332° |
| 2026-05-04 13:31 | 42.29478 | 12.86960 | 34191 ft | 422 kts | 332° |
| 2026-05-04 13:32 | 42.34875 | 12.83786 | 34191 ft | 423 kts | 332° |
| 2026-05-04 13:32 | 42.40266 | 12.80602 | 34187 ft | 423 kts | 332° |
| 2026-05-04 13:33 | 42.45662 | 12.77410 | 34185 ft | 424 kts | 332° |
| 2026-05-04 13:33 | 42.51071 | 12.74201 | 34178 ft | 424 kts | 332° |
| 2026-05-04 13:34 | 42.56482 | 12.70985 | 34167 ft | 425 kts | 332° |
| 2026-05-04 13:34 | 42.61905 | 12.67755 | 34153 ft | 426 kts | 332° |
| 2026-05-04 13:35 | 42.70051 | 12.62910 | 34136 ft | 426 kts | 332° |
| 2026-05-04 13:36 | 42.75485 | 12.59668 | 34138 ft | 427 kts | 332° |
| 2026-05-04 13:36 | 42.80890 | 12.56431 | 34124 ft | 427 kts | 332° |
| 2026-05-04 13:37 | 42.86331 | 12.53167 | 34125 ft | 428 kts | 332° |
| 2026-05-04 13:37 | 42.91789 | 12.49890 | 34128 ft | 429 kts | 332° |
| 2026-05-04 13:38 | 42.97248 | 12.46601 | 34139 ft | 429 kts | 332° |
| 2026-05-04 13:38 | 43.02712 | 12.43302 | 34136 ft | 429 kts | 332° |
| 2026-05-04 13:39 | 43.08175 | 12.40006 | 34132 ft | 430 kts | 332° |
| 2026-05-04 13:39 | 43.13648 | 12.36694 | 34131 ft | 430 kts | 332° |
| 2026-05-04 13:40 | 43.19128 | 12.33363 | 34133 ft | 431 kts | 332° |
| 2026-05-04 13:40 | 43.24613 | 12.30029 | 34120 ft | 431 kts | 332° |
| 2026-05-04 13:41 | 43.30112 | 12.26675 | 34116 ft | 432 kts | 332° |
| 2026-05-04 13:41 | 43.35606 | 12.23318 | 34113 ft | 432 kts | 332° |
| 2026-05-04 13:42 | 43.43829 | 12.18296 | 34112 ft | 434 kts | 332° |
| 2026-05-04 13:42 | 43.49347 | 12.14912 | 34110 ft | 434 kts | 332° |
| 2026-05-04 13:43 | 43.54864 | 12.11514 | 34107 ft | 434 kts | 332° |
| 2026-05-04 13:43 | 43.60380 | 12.08111 | 34114 ft | 435 kts | 332° |
| 2026-05-04 13:44 | 43.65926 | 12.04688 | 34103 ft | 437 kts | 332° |
| 2026-05-04 13:44 | 43.71463 | 12.01262 | 34103 ft | 437 kts | 332° |
| 2026-05-04 13:45 | 43.77014 | 11.97827 | 34100 ft | 437 kts | 332° |
| 2026-05-04 13:45 | 43.82565 | 11.94387 | 34107 ft | 438 kts | 332° |
| 2026-05-04 13:46 | 43.88128 | 11.90926 | 34092 ft | 439 kts | 332° |
| 2026-05-04 13:46 | 43.93703 | 11.87452 | 34089 ft | 439 kts | 332° |
| 2026-05-04 13:47 | 43.99275 | 11.83971 | 34093 ft | 439 kts | 332° |
| 2026-05-04 13:47 | 44.04854 | 11.80479 | 34090 ft | 441 kts | 333° |
| 2026-05-04 13:48 | 44.10447 | 11.76959 | 34084 ft | 442 kts | 333° |
| 2026-05-04 13:48 | 44.16021 | 11.73454 | 34086 ft | 442 kts | 333° |
| 2026-05-04 13:49 | 44.21630 | 11.69926 | 34083 ft | 442 kts | 333° |
| 2026-05-04 13:49 | 44.27236 | 11.66381 | 34086 ft | 442 kts | 332° |
| 2026-05-04 13:50 | 44.32843 | 11.62834 | 34093 ft | 442 kts | 332° |
| 2026-05-04 13:50 | 44.38441 | 11.59283 | 34097 ft | 441 kts | 332° |
| 2026-05-04 13:51 | 44.43091 | 11.56331 | 34089 ft | 442 kts | 332° |
| 2026-05-04 13:51 | 44.48693 | 11.52763 | 34079 ft | 442 kts | 332° |
| 2026-05-04 13:52 | 44.57111 | 11.47396 | 34076 ft | 443 kts | 332° |
| 2026-05-04 13:53 | 44.62721 | 11.43809 | 34086 ft | 444 kts | 333° |
| 2026-05-04 13:53 | 44.68357 | 11.40196 | 34067 ft | 445 kts | 333° |
| 2026-05-04 13:54 | 44.76806 | 11.34772 | 34071 ft | 445 kts | 332° |
| 2026-05-04 13:55 | 44.85204 | 11.29336 | 34067 ft | 446 kts | 332° |
| 2026-05-04 13:55 | 44.93674 | 11.23861 | 34055 ft | 447 kts | 332° |
| 2026-05-04 13:56 | 44.99339 | 11.20195 | 34053 ft | 447 kts | 332° |
| 2026-05-04 13:57 | 45.07820 | 11.14664 | 34066 ft | 449 kts | 333° |
| 2026-05-04 13:58 | 45.19208 | 11.07237 | 34068 ft | 451 kts | 333° |
| 2026-05-04 13:58 | 45.27728 | 11.01646 | 34064 ft | 453 kts | 333° |
| 2026-05-04 13:59 | 45.33463 | 10.97873 | 34038 ft | 455 kts | 333° |
| 2026-05-04 14:00 | 45.42092 | 10.92175 | 34032 ft | 456 kts | 333° |
| 2026-05-04 14:00 | 45.50712 | 10.86463 | 34067 ft | 456 kts | 332° |
| 2026-05-04 14:01 | 45.56470 | 10.82647 | 34071 ft | 456 kts | 332° |
| 2026-05-04 14:02 | 45.65065 | 10.76941 | 34070 ft | 456 kts | 332° |
| 2026-05-04 14:02 | 45.70818 | 10.73110 | 34078 ft | 456 kts | 332° |
| 2026-05-04 14:03 | 45.76575 | 10.69257 | 34079 ft | 457 kts | 332° |
| 2026-05-04 14:03 | 45.82343 | 10.65384 | 34091 ft | 457 kts | 332° |
| 2026-05-04 14:04 | 45.90984 | 10.59578 | 34099 ft | 457 kts | 332° |
| 2026-05-04 14:04 | 45.96741 | 10.55695 | 34097 ft | 457 kts | 332° |
| 2026-05-04 14:05 | 46.05401 | 10.49843 | 34100 ft | 458 kts | 332° |
| 2026-05-04 14:06 | 46.11131 | 10.45953 | 34094 ft | 458 kts | 332° |
| 2026-05-04 14:06 | 46.16680 | 10.41497 | 34084 ft | 454 kts | 320° |
| 2026-05-04 14:07 | 46.21557 | 10.35737 | 34105 ft | 453 kts | 317° |
| 2026-05-04 14:07 | 46.26414 | 10.29961 | 34110 ft | 452 kts | 317° |
| 2026-05-04 14:08 | 46.31268 | 10.24193 | 34120 ft | 452 kts | 317° |
| 2026-05-04 14:08 | 46.36116 | 10.18409 | 34111 ft | 449 kts | 317° |
| 2026-05-04 14:09 | 46.43326 | 10.09750 | 34116 ft | 447 kts | 317° |
| 2026-05-04 14:10 | 46.50477 | 10.01050 | 34131 ft | 447 kts | 315° |
| 2026-05-04 14:10 | 46.55120 | 9.95059 | 34131 ft | 447 kts | 314° |
| 2026-05-04 14:11 | 46.59740 | 9.89001 | 34120 ft | 448 kts | 315° |
| 2026-05-04 14:11 | 46.66730 | 9.79934 | 34119 ft | 449 kts | 315° |
| 2026-05-04 14:12 | 46.71405 | 9.73880 | 34128 ft | 449 kts | 315° |
| 2026-05-04 14:13 | 46.78362 | 9.64832 | 34120 ft | 449 kts | 315° |
| 2026-05-04 14:13 | 46.83016 | 9.58750 | 34059 ft | 449 kts | 315° |